sensor_id;sensor_type;location;lat;lon;timestamp;P1;durP1;ratioP1;P2;durP2;ratioP2
36191;SDS011;22233;42.708;23.360;2023-08-08T00:01:43;1.55;;;0.70;;
36191;SDS011;22233;42.708;23.360;2023-08-08T00:04:09;1.17;;;1.00;;
36191;SDS011;22233;42.708;23.360;2023-08-08T00:06:35;1.33;;;1.00;;
36191;SDS011;22233;42.708;23.360;2023-08-08T00:09:01;1.38;;;0.90;;
36191;SDS011;22233;42.708;23.360;2023-08-08T00:11:26;1.40;;;1.10;;
36191;SDS011;22233;42.708;23.360;2023-08-08T00:13:52;1.23;;;0.70;;
36191;SDS011;22233;42.708;23.360;2023-08-08T00:16:17;2.78;;;1.25;;
36191;SDS011;22233;42.708;23.360;2023-08-08T00:18:42;1.08;;;0.75;;
36191;SDS011;22233;42.708;23.360;2023-08-08T00:21:08;0.80;;;0.80;;
36191;SDS011;22233;42.708;23.360;2023-08-08T00:23:33;0.80;;;0.80;;
36191;SDS011;22233;42.708;23.360;2023-08-08T00:25:59;1.00;;;0.80;;
36191;SDS011;22233;42.708;23.360;2023-08-08T00:28:24;1.30;;;0.90;;
36191;SDS011;22233;42.708;23.360;2023-08-08T00:30:50;1.10;;;1.00;;
36191;SDS011;22233;42.708;23.360;2023-08-08T00:33:15;1.73;;;0.80;;
36191;SDS011;22233;42.708;23.360;2023-08-08T00:35:42;4.63;;;1.00;;
36191;SDS011;22233;42.708;23.360;2023-08-08T00:38:08;2.07;;;1.00;;
36191;SDS011;22233;42.708;23.360;2023-08-08T00:40:34;2.25;;;0.73;;
36191;SDS011;22233;42.708;23.360;2023-08-08T00:42:59;2.92;;;0.98;;
36191;SDS011;22233;42.708;23.360;2023-08-08T00:45:25;0.88;;;0.70;;
36191;SDS011;22233;42.708;23.360;2023-08-08T00:47:50;2.05;;;1.10;;
36191;SDS011;22233;42.708;23.360;2023-08-08T00:50:16;1.08;;;0.98;;
36191;SDS011;22233;42.708;23.360;2023-08-08T00:52:43;1.55;;;1.00;;
36191;SDS011;22233;42.708;23.360;2023-08-08T00:55:09;1.38;;;1.00;;
36191;SDS011;22233;42.708;23.360;2023-08-08T00:57:35;2.10;;;0.88;;
36191;SDS011;22233;42.708;23.360;2023-08-08T01:00:04;1.42;;;1.00;;
36191;SDS011;22233;42.708;23.360;2023-08-08T01:02:35;1.63;;;0.98;;
36191;SDS011;22233;42.708;23.360;2023-08-08T01:05:00;2.60;;;0.98;;
36191;SDS011;22233;42.708;23.360;2023-08-08T01:10:33;1.55;;;0.93;;
36191;SDS011;22233;42.708;23.360;2023-08-08T01:13:04;2.58;;;1.00;;
36191;SDS011;22233;42.708;23.360;2023-08-08T01:15:34;1.10;;;0.73;;
36191;SDS011;22233;42.708;23.360;2023-08-08T01:18:07;1.23;;;0.88;;
36191;SDS011;22233;42.708;23.360;2023-08-08T01:20:35;2.45;;;0.85;;
36191;SDS011;22233;42.708;23.360;2023-08-08T01:25:32;1.95;;;1.10;;
36191;SDS011;22233;42.708;23.360;2023-08-08T01:27:58;1.13;;;1.00;;
36191;SDS011;22233;42.708;23.360;2023-08-08T01:30:24;0.85;;;0.77;;
36191;SDS011;22233;42.708;23.360;2023-08-08T01:32:49;0.82;;;0.80;;
36191;SDS011;22233;42.708;23.360;2023-08-08T01:35:15;1.42;;;1.00;;
36191;SDS011;22233;42.708;23.360;2023-08-08T01:37:52;1.70;;;0.93;;
36191;SDS011;22233;42.708;23.360;2023-08-08T01:40:24;1.73;;;0.98;;
36191;SDS011;22233;42.708;23.360;2023-08-08T01:42:50;2.10;;;1.17;;
36191;SDS011;22233;42.708;23.360;2023-08-08T01:45:17;1.50;;;0.90;;
36191;SDS011;22233;42.708;23.360;2023-08-08T01:47:43;1.48;;;0.90;;
36191;SDS011;22233;42.708;23.360;2023-08-08T01:50:14;2.53;;;1.13;;
36191;SDS011;22233;42.708;23.360;2023-08-08T01:52:40;1.30;;;0.82;;
36191;SDS011;22233;42.708;23.360;2023-08-08T01:55:05;2.13;;;1.10;;
36191;SDS011;22233;42.708;23.360;2023-08-08T01:57:31;2.70;;;1.23;;
36191;SDS011;22233;42.708;23.360;2023-08-08T01:59:56;2.25;;;1.20;;
36191;SDS011;22233;42.708;23.360;2023-08-08T02:02:22;1.20;;;1.10;;
36191;SDS011;22233;42.708;23.360;2023-08-08T02:04:47;1.50;;;1.00;;
36191;SDS011;22233;42.708;23.360;2023-08-08T02:07:13;2.45;;;1.10;;
36191;SDS011;22233;42.708;23.360;2023-08-08T02:09:39;1.63;;;1.27;;
36191;SDS011;22233;42.708;23.360;2023-08-08T02:12:04;1.52;;;1.10;;
36191;SDS011;22233;42.708;23.360;2023-08-08T02:14:30;2.65;;;1.20;;
36191;SDS011;22233;42.708;23.360;2023-08-08T02:16:55;1.10;;;1.00;;
36191;SDS011;22233;42.708;23.360;2023-08-08T02:19:20;1.83;;;1.20;;
36191;SDS011;22233;42.708;23.360;2023-08-08T02:21:46;1.50;;;1.27;;
36191;SDS011;22233;42.708;23.360;2023-08-08T02:24:11;1.30;;;1.10;;
36191;SDS011;22233;42.708;23.360;2023-08-08T02:26:37;1.80;;;1.23;;
36191;SDS011;22233;42.708;23.360;2023-08-08T02:29:02;3.00;;;1.35;;
36191;SDS011;22233;42.708;23.360;2023-08-08T02:31:27;1.67;;;1.20;;
36191;SDS011;22233;42.708;23.360;2023-08-08T02:33:53;1.42;;;1.30;;
36191;SDS011;22233;42.708;23.360;2023-08-08T02:36:19;2.03;;;1.50;;
36191;SDS011;22233;42.708;23.360;2023-08-08T02:38:45;1.55;;;1.45;;
36191;SDS011;22233;42.708;23.360;2023-08-08T02:41:10;1.67;;;1.20;;
36191;SDS011;22233;42.708;23.360;2023-08-08T02:43:36;2.65;;;1.42;;
36191;SDS011;22233;42.708;23.360;2023-08-08T02:46:01;1.52;;;1.42;;
36191;SDS011;22233;42.708;23.360;2023-08-08T02:48:27;3.00;;;1.50;;
36191;SDS011;22233;42.708;23.360;2023-08-08T02:50:53;2.80;;;1.73;;
36191;SDS011;22233;42.708;23.360;2023-08-08T02:53:19;3.05;;;1.60;;
36191;SDS011;22233;42.708;23.360;2023-08-08T02:55:44;1.85;;;1.63;;
36191;SDS011;22233;42.708;23.360;2023-08-08T02:58:10;2.80;;;1.60;;
36191;SDS011;22233;42.708;23.360;2023-08-08T03:00:35;2.55;;;1.65;;
36191;SDS011;22233;42.708;23.360;2023-08-08T03:03:01;1.95;;;1.83;;
36191;SDS011;22233;42.708;23.360;2023-08-08T03:05:28;3.17;;;1.73;;
36191;SDS011;22233;42.708;23.360;2023-08-08T03:07:53;2.88;;;1.77;;
36191;SDS011;22233;42.708;23.360;2023-08-08T03:10:18;1.77;;;1.67;;
36191;SDS011;22233;42.708;23.360;2023-08-08T03:12:44;2.10;;;1.90;;
36191;SDS011;22233;42.708;23.360;2023-08-08T03:15:09;1.73;;;1.63;;
36191;SDS011;22233;42.708;23.360;2023-08-08T03:17:35;2.75;;;2.35;;
36191;SDS011;22233;42.708;23.360;2023-08-08T03:20:01;2.63;;;2.42;;
36191;SDS011;22233;42.708;23.360;2023-08-08T03:22:31;4.65;;;2.10;;
36191;SDS011;22233;42.708;23.360;2023-08-08T03:24:57;2.30;;;2.08;;
36191;SDS011;22233;42.708;23.360;2023-08-08T03:27:23;2.38;;;2.17;;
36191;SDS011;22233;42.708;23.360;2023-08-08T03:29:49;4.32;;;2.03;;
36191;SDS011;22233;42.708;23.360;2023-08-08T03:32:15;2.40;;;2.20;;
36191;SDS011;22233;42.708;23.360;2023-08-08T03:34:41;3.10;;;2.80;;
36191;SDS011;22233;42.708;23.360;2023-08-08T03:37:06;2.45;;;2.20;;
36191;SDS011;22233;42.708;23.360;2023-08-08T03:39:32;2.70;;;2.50;;
36191;SDS011;22233;42.708;23.360;2023-08-08T03:41:58;2.83;;;2.42;;
36191;SDS011;22233;42.708;23.360;2023-08-08T03:44:23;2.90;;;2.67;;
36191;SDS011;22233;42.708;23.360;2023-08-08T03:46:49;3.10;;;2.80;;
36191;SDS011;22233;42.708;23.360;2023-08-08T03:49:14;3.42;;;2.90;;
36191;SDS011;22233;42.708;23.360;2023-08-08T03:51:40;3.65;;;3.28;;
36191;SDS011;22233;42.708;23.360;2023-08-08T03:54:05;3.58;;;2.60;;
36191;SDS011;22233;42.708;23.360;2023-08-08T03:56:31;3.63;;;3.22;;
36191;SDS011;22233;42.708;23.360;2023-08-08T03:58:57;4.75;;;3.00;;
36191;SDS011;22233;42.708;23.360;2023-08-08T04:01:22;4.03;;;3.38;;
36191;SDS011;22233;42.708;23.360;2023-08-08T04:03:48;4.15;;;3.60;;
36191;SDS011;22233;42.708;23.360;2023-08-08T04:06:13;3.38;;;2.83;;
36191;SDS011;22233;42.708;23.360;2023-08-08T04:08:39;3.30;;;3.00;;
36191;SDS011;22233;42.708;23.360;2023-08-08T04:11:04;5.60;;;3.30;;
36191;SDS011;22233;42.708;23.360;2023-08-08T04:13:30;3.80;;;2.75;;
36191;SDS011;22233;42.708;23.360;2023-08-08T04:15:55;3.67;;;3.38;;
36191;SDS011;22233;42.708;23.360;2023-08-08T04:18:21;3.78;;;3.13;;
36191;SDS011;22233;42.708;23.360;2023-08-08T04:20:46;4.00;;;3.30;;
36191;SDS011;22233;42.708;23.360;2023-08-08T04:23:14;4.00;;;3.60;;
36191;SDS011;22233;42.708;23.360;2023-08-08T04:25:39;3.95;;;3.40;;
36191;SDS011;22233;42.708;23.360;2023-08-08T04:28:05;4.22;;;3.13;;
36191;SDS011;22233;42.708;23.360;2023-08-08T04:30:30;4.68;;;3.88;;
36191;SDS011;22233;42.708;23.360;2023-08-08T04:32:56;5.43;;;4.47;;
36191;SDS011;22233;42.708;23.360;2023-08-08T04:35:21;5.03;;;4.53;;
36191;SDS011;22233;42.708;23.360;2023-08-08T04:37:46;3.90;;;3.60;;
36191;SDS011;22233;42.708;23.360;2023-08-08T04:40:12;4.20;;;3.80;;
36191;SDS011;22233;42.708;23.360;2023-08-08T04:42:37;5.95;;;4.03;;
36191;SDS011;22233;42.708;23.360;2023-08-08T04:45:04;4.57;;;4.13;;
36191;SDS011;22233;42.708;23.360;2023-08-08T04:47:30;4.05;;;3.75;;
36191;SDS011;22233;42.708;23.360;2023-08-08T04:49:55;4.93;;;3.97;;
36191;SDS011;22233;42.708;23.360;2023-08-08T04:52:20;7.50;;;4.43;;
36191;SDS011;22233;42.708;23.360;2023-08-08T04:54:46;6.32;;;4.10;;
36191;SDS011;22233;42.708;23.360;2023-08-08T04:57:11;4.75;;;3.80;;
36191;SDS011;22233;42.708;23.360;2023-08-08T04:59:37;7.28;;;4.32;;
36191;SDS011;22233;42.708;23.360;2023-08-08T05:02:02;4.07;;;3.65;;
36191;SDS011;22233;42.708;23.360;2023-08-08T05:04:27;5.45;;;4.90;;
36191;SDS011;22233;42.708;23.360;2023-08-08T05:06:53;4.47;;;4.07;;
36191;SDS011;22233;42.708;23.360;2023-08-08T05:09:18;4.50;;;4.10;;
36191;SDS011;22233;42.708;23.360;2023-08-08T05:11:45;5.15;;;4.15;;
36191;SDS011;22233;42.708;23.360;2023-08-08T05:14:11;6.22;;;4.63;;
36191;SDS011;22233;42.708;23.360;2023-08-08T05:16:36;7.93;;;4.53;;
36191;SDS011;22233;42.708;23.360;2023-08-08T05:19:02;4.97;;;4.13;;
36191;SDS011;22233;42.708;23.360;2023-08-08T05:21:28;5.95;;;4.32;;
36191;SDS011;22233;42.708;23.360;2023-08-08T05:23:53;3.95;;;3.47;;
36191;SDS011;22233;42.708;23.360;2023-08-08T05:26:19;5.43;;;4.15;;
36191;SDS011;22233;42.708;23.360;2023-08-08T05:28:44;3.45;;;2.75;;
36191;SDS011;22233;42.708;23.360;2023-08-08T05:31:10;3.80;;;3.50;;
36191;SDS011;22233;42.708;23.360;2023-08-08T05:33:35;3.60;;;3.30;;
36191;SDS011;22233;42.708;23.360;2023-08-08T05:36:00;7.25;;;3.30;;
36191;SDS011;22233;42.708;23.360;2023-08-08T05:38:26;5.18;;;3.40;;
36191;SDS011;22233;42.708;23.360;2023-08-08T05:40:51;5.50;;;2.58;;
36191;SDS011;22233;42.708;23.360;2023-08-08T05:43:17;4.32;;;2.67;;
36191;SDS011;22233;42.708;23.360;2023-08-08T05:45:46;7.50;;;4.45;;
36191;SDS011;22233;42.708;23.360;2023-08-08T05:48:12;4.25;;;2.60;;
36191;SDS011;22233;42.708;23.360;2023-08-08T05:50:37;2.55;;;2.35;;
36191;SDS011;22233;42.708;23.360;2023-08-08T05:53:03;2.22;;;2.03;;
36191;SDS011;22233;42.708;23.360;2023-08-08T05:55:29;2.50;;;2.30;;
36191;SDS011;22233;42.708;23.360;2023-08-08T05:57:54;3.25;;;2.47;;
36191;SDS011;22233;42.708;23.360;2023-08-08T06:00:20;2.60;;;2.40;;
36191;SDS011;22233;42.708;23.360;2023-08-08T06:02:45;2.70;;;2.50;;
36191;SDS011;22233;42.708;23.360;2023-08-08T06:05:11;5.20;;;2.80;;
36191;SDS011;22233;42.708;23.360;2023-08-08T06:07:37;2.75;;;2.55;;
36191;SDS011;22233;42.708;23.360;2023-08-08T06:10:02;2.75;;;2.55;;
36191;SDS011;22233;42.708;23.360;2023-08-08T06:12:28;3.78;;;2.88;;
36191;SDS011;22233;42.708;23.360;2023-08-08T06:14:53;5.88;;;3.38;;
36191;SDS011;22233;42.708;23.360;2023-08-08T06:17:19;4.30;;;2.95;;
36191;SDS011;22233;42.708;23.360;2023-08-08T06:19:45;3.20;;;2.67;;
36191;SDS011;22233;42.708;23.360;2023-08-08T06:22:11;2.85;;;2.42;;
36191;SDS011;22233;42.708;23.360;2023-08-08T06:24:37;3.13;;;2.83;;
36191;SDS011;22233;42.708;23.360;2023-08-08T06:27:04;3.78;;;2.50;;
36191;SDS011;22233;42.708;23.360;2023-08-08T06:29:29;3.75;;;2.50;;
36191;SDS011;22233;42.708;23.360;2023-08-08T06:31:55;3.00;;;2.80;;
36191;SDS011;22233;42.708;23.360;2023-08-08T06:34:21;3.22;;;2.92;;
36191;SDS011;22233;42.708;23.360;2023-08-08T06:36:46;3.13;;;2.83;;
36191;SDS011;22233;42.708;23.360;2023-08-08T06:39:12;2.60;;;2.30;;
36191;SDS011;22233;42.708;23.360;2023-08-08T06:41:37;3.58;;;2.83;;
36191;SDS011;22233;42.708;23.360;2023-08-08T06:44:04;3.75;;;2.50;;
36191;SDS011;22233;42.708;23.360;2023-08-08T06:46:30;2.70;;;2.50;;
36191;SDS011;22233;42.708;23.360;2023-08-08T06:48:55;2.85;;;2.53;;
36191;SDS011;22233;42.708;23.360;2023-08-08T06:51:26;2.95;;;2.67;;
36191;SDS011;22233;42.708;23.360;2023-08-08T06:53:52;3.30;;;3.00;;
36191;SDS011;22233;42.708;23.360;2023-08-08T06:56:17;2.83;;;2.33;;
36191;SDS011;22233;42.708;23.360;2023-08-08T06:58:43;3.47;;;2.28;;
36191;SDS011;22233;42.708;23.360;2023-08-08T07:01:09;3.40;;;2.58;;
36191;SDS011;22233;42.708;23.360;2023-08-08T07:03:35;3.65;;;2.08;;
36191;SDS011;22233;42.708;23.360;2023-08-08T07:06:01;1.73;;;1.63;;
36191;SDS011;22233;42.708;23.360;2023-08-08T07:08:27;3.33;;;2.35;;
36191;SDS011;22233;42.708;23.360;2023-08-08T07:10:54;2.80;;;1.97;;
36191;SDS011;22233;42.708;23.360;2023-08-08T07:13:19;1.90;;;1.70;;
36191;SDS011;22233;42.708;23.360;2023-08-08T07:15:45;1.85;;;1.48;;
36191;SDS011;22233;42.708;23.360;2023-08-08T07:18:10;3.25;;;2.25;;
36191;SDS011;22233;42.708;23.360;2023-08-08T07:20:35;2.95;;;2.00;;
36191;SDS011;22233;42.708;23.360;2023-08-08T07:23:01;5.55;;;1.73;;
36191;SDS011;22233;42.708;23.360;2023-08-08T07:25:26;1.98;;;1.80;;
36191;SDS011;22233;42.708;23.360;2023-08-08T07:27:52;3.20;;;2.90;;
36191;SDS011;22233;42.708;23.360;2023-08-08T07:30:17;3.05;;;2.08;;
36191;SDS011;22233;42.708;23.360;2023-08-08T07:32:43;5.05;;;2.20;;
36191;SDS011;22233;42.708;23.360;2023-08-08T07:35:08;1.83;;;1.70;;
36191;SDS011;22233;42.708;23.360;2023-08-08T07:37:34;3.38;;;1.70;;
36191;SDS011;22233;42.708;23.360;2023-08-08T07:40:00;2.07;;;1.60;;
36191;SDS011;22233;42.708;23.360;2023-08-08T07:42:26;1.90;;;1.70;;
36191;SDS011;22233;42.708;23.360;2023-08-08T07:44:51;2.80;;;1.67;;
36191;SDS011;22233;42.708;23.360;2023-08-08T07:47:17;1.42;;;1.30;;
36191;SDS011;22233;42.708;23.360;2023-08-08T07:49:42;1.67;;;1.10;;
36191;SDS011;22233;42.708;23.360;2023-08-08T07:52:08;1.30;;;1.20;;
36191;SDS011;22233;42.708;23.360;2023-08-08T07:54:34;1.85;;;1.00;;
36191;SDS011;22233;42.708;23.360;2023-08-08T07:56:59;2.08;;;1.33;;
36191;SDS011;22233;42.708;23.360;2023-08-08T07:59:25;2.45;;;1.63;;
36191;SDS011;22233;42.708;23.360;2023-08-08T08:01:50;2.60;;;1.50;;
36191;SDS011;22233;42.708;23.360;2023-08-08T08:04:16;1.40;;;1.30;;
36191;SDS011;22233;42.708;23.360;2023-08-08T08:06:41;1.60;;;1.23;;
36191;SDS011;22233;42.708;23.360;2023-08-08T08:09:07;1.40;;;1.30;;
36191;SDS011;22233;42.708;23.360;2023-08-08T08:11:33;1.90;;;1.30;;
36191;SDS011;22233;42.708;23.360;2023-08-08T08:13:58;2.60;;;1.20;;
36191;SDS011;22233;42.708;23.360;2023-08-08T08:16:24;5.68;;;1.40;;
36191;SDS011;22233;42.708;23.360;2023-08-08T08:18:49;1.98;;;1.33;;
36191;SDS011;22233;42.708;23.360;2023-08-08T08:21:15;1.67;;;1.13;;
36191;SDS011;22233;42.708;23.360;2023-08-08T08:23:42;1.75;;;1.00;;
36191;SDS011;22233;42.708;23.360;2023-08-08T08:26:08;2.10;;;1.13;;
36191;SDS011;22233;42.708;23.360;2023-08-08T08:28:34;2.38;;;1.27;;
36191;SDS011;22233;42.708;23.360;2023-08-08T08:31:06;1.80;;;1.30;;
36191;SDS011;22233;42.708;23.360;2023-08-08T08:33:32;2.65;;;1.20;;
36191;SDS011;22233;42.708;23.360;2023-08-08T08:35:57;1.92;;;1.00;;
36191;SDS011;22233;42.708;23.360;2023-08-08T08:38:22;2.58;;;1.08;;
36191;SDS011;22233;42.708;23.360;2023-08-08T08:40:48;2.55;;;1.50;;
36191;SDS011;22233;42.708;23.360;2023-08-08T08:43:14;2.53;;;1.40;;
36191;SDS011;22233;42.708;23.360;2023-08-08T08:45:42;2.33;;;1.42;;
36191;SDS011;22233;42.708;23.360;2023-08-08T08:48:09;2.23;;;1.77;;
36191;SDS011;22233;42.708;23.360;2023-08-08T08:50:38;2.72;;;1.35;;
36191;SDS011;22233;42.708;23.360;2023-08-08T08:53:05;2.70;;;1.70;;
36191;SDS011;22233;42.708;23.360;2023-08-08T08:55:31;2.40;;;1.50;;
36191;SDS011;22233;42.708;23.360;2023-08-08T08:57:57;2.20;;;1.73;;
36191;SDS011;22233;42.708;23.360;2023-08-08T09:00:22;1.55;;;1.45;;
36191;SDS011;22233;42.708;23.360;2023-08-08T09:02:49;3.33;;;1.38;;
36191;SDS011;22233;42.708;23.360;2023-08-08T09:05:15;2.15;;;1.63;;
36191;SDS011;22233;42.708;23.360;2023-08-08T09:07:46;5.18;;;2.33;;
36191;SDS011;22233;42.708;23.360;2023-08-08T09:10:12;4.30;;;1.60;;
36191;SDS011;22233;42.708;23.360;2023-08-08T09:12:40;2.05;;;1.42;;
36191;SDS011;22233;42.708;23.360;2023-08-08T09:15:05;3.70;;;1.50;;
36191;SDS011;22233;42.708;23.360;2023-08-08T09:17:31;1.65;;;1.42;;
36191;SDS011;22233;42.708;23.360;2023-08-08T09:20:00;3.40;;;1.30;;
36191;SDS011;22233;42.708;23.360;2023-08-08T09:22:25;2.80;;;1.35;;
36191;SDS011;22233;42.708;23.360;2023-08-08T09:24:52;3.00;;;1.30;;
36191;SDS011;22233;42.708;23.360;2023-08-08T09:27:18;3.28;;;1.38;;
36191;SDS011;22233;42.708;23.360;2023-08-08T09:29:43;3.25;;;1.30;;
36191;SDS011;22233;42.708;23.360;2023-08-08T09:32:09;1.35;;;1.23;;
36191;SDS011;22233;42.708;23.360;2023-08-08T09:34:34;1.65;;;1.25;;
36191;SDS011;22233;42.708;23.360;2023-08-08T09:37:00;4.70;;;1.27;;
36191;SDS011;22233;42.708;23.360;2023-08-08T09:39:28;1.40;;;1.07;;
36191;SDS011;22233;42.708;23.360;2023-08-08T09:41:55;2.03;;;1.25;;
36191;SDS011;22233;42.708;23.360;2023-08-08T09:46:51;2.22;;;1.40;;
36191;SDS011;22233;42.708;23.360;2023-08-08T09:49:17;2.75;;;1.30;;
36191;SDS011;22233;42.708;23.360;2023-08-08T09:51:43;2.83;;;1.50;;
36191;SDS011;22233;42.708;23.360;2023-08-08T09:54:08;1.50;;;1.40;;
36191;SDS011;22233;42.708;23.360;2023-08-08T09:56:35;1.52;;;1.30;;
36191;SDS011;22233;42.708;23.360;2023-08-08T09:59:01;1.20;;;1.10;;
36191;SDS011;22233;42.708;23.360;2023-08-08T10:01:29;3.45;;;1.50;;
36191;SDS011;22233;42.708;23.360;2023-08-08T10:03:56;1.50;;;1.40;;
36191;SDS011;22233;42.708;23.360;2023-08-08T10:06:22;1.27;;;1.17;;
36191;SDS011;22233;42.708;23.360;2023-08-08T10:08:48;1.38;;;1.27;;
36191;SDS011;22233;42.708;23.360;2023-08-08T10:11:14;1.40;;;1.30;;
36191;SDS011;22233;42.708;23.360;2023-08-08T10:13:47;1.88;;;1.77;;
36191;SDS011;22233;42.708;23.360;2023-08-08T10:16:15;1.58;;;1.48;;
36191;SDS011;22233;42.708;23.360;2023-08-08T10:18:44;2.10;;;1.40;;
36191;SDS011;22233;42.708;23.360;2023-08-08T10:21:11;1.52;;;1.42;;
36191;SDS011;22233;42.708;23.360;2023-08-08T10:23:38;4.85;;;1.60;;
36191;SDS011;22233;42.708;23.360;2023-08-08T10:26:04;2.55;;;1.75;;
36191;SDS011;22233;42.708;23.360;2023-08-08T10:28:31;1.70;;;1.48;;
36191;SDS011;22233;42.708;23.360;2023-08-08T10:30:59;3.65;;;1.40;;
36191;SDS011;22233;42.708;23.360;2023-08-08T10:33:40;1.58;;;1.48;;
36191;SDS011;22233;42.708;23.360;2023-08-08T10:36:08;2.35;;;1.70;;
36191;SDS011;22233;42.708;23.360;2023-08-08T10:41:08;1.65;;;1.52;;
36191;SDS011;22233;42.708;23.360;2023-08-08T10:43:55;2.28;;;1.45;;
36191;SDS011;22233;42.708;23.360;2023-08-08T10:46:26;3.22;;;1.50;;
36191;SDS011;22233;42.708;23.360;2023-08-08T10:49:04;2.13;;;1.38;;
36191;SDS011;22233;42.708;23.360;2023-08-08T10:54:03;1.30;;;0.90;;
36191;SDS011;22233;42.708;23.360;2023-08-08T10:56:30;1.60;;;1.48;;
36191;SDS011;22233;42.708;23.360;2023-08-08T10:58:56;1.27;;;0.95;;
36191;SDS011;22233;42.708;23.360;2023-08-08T11:01:25;2.80;;;1.20;;
36191;SDS011;22233;42.708;23.360;2023-08-08T11:03:51;1.90;;;1.30;;
36191;SDS011;22233;42.708;23.360;2023-08-08T11:06:17;1.67;;;1.20;;
36191;SDS011;22233;42.708;23.360;2023-08-08T11:08:43;2.33;;;1.30;;
36191;SDS011;22233;42.708;23.360;2023-08-08T11:11:09;3.75;;;1.50;;
36191;SDS011;22233;42.708;23.360;2023-08-08T11:13:35;2.13;;;1.25;;
36191;SDS011;22233;42.708;23.360;2023-08-08T11:16:00;2.60;;;1.35;;
36191;SDS011;22233;42.708;23.360;2023-08-08T11:18:28;2.03;;;1.40;;
36191;SDS011;22233;42.708;23.360;2023-08-08T11:20:54;1.35;;;1.13;;
36191;SDS011;22233;42.708;23.360;2023-08-08T11:23:20;2.33;;;1.30;;
36191;SDS011;22233;42.708;23.360;2023-08-08T11:25:45;1.48;;;1.27;;
36191;SDS011;22233;42.708;23.360;2023-08-08T11:28:12;2.03;;;1.70;;
36191;SDS011;22233;42.708;23.360;2023-08-08T11:30:40;2.47;;;1.27;;
36191;SDS011;22233;42.708;23.360;2023-08-08T11:33:08;2.15;;;1.45;;
36191;SDS011;22233;42.708;23.360;2023-08-08T11:35:34;3.15;;;1.35;;
36191;SDS011;22233;42.708;23.360;2023-08-08T11:38:00;4.07;;;1.23;;
36191;SDS011;22233;42.708;23.360;2023-08-08T11:40:32;4.03;;;1.17;;
36191;SDS011;22233;42.708;23.360;2023-08-08T11:42:58;1.40;;;1.10;;
36191;SDS011;22233;42.708;23.360;2023-08-08T11:45:24;2.72;;;1.42;;
36191;SDS011;22233;42.708;23.360;2023-08-08T11:47:50;1.33;;;1.23;;
36191;SDS011;22233;42.708;23.360;2023-08-08T11:50:18;3.05;;;1.33;;
36191;SDS011;22233;42.708;23.360;2023-08-08T11:52:45;1.85;;;1.13;;
36191;SDS011;22233;42.708;23.360;2023-08-08T11:55:11;1.20;;;1.08;;
36191;SDS011;22233;42.708;23.360;2023-08-08T11:57:38;1.47;;;1.00;;
36191;SDS011;22233;42.708;23.360;2023-08-08T12:00:06;1.30;;;1.20;;
36191;SDS011;22233;42.708;23.360;2023-08-08T12:02:33;2.70;;;1.10;;
36191;SDS011;22233;42.708;23.360;2023-08-08T12:05:06;1.25;;;1.10;;
36191;SDS011;22233;42.708;23.360;2023-08-08T12:07:32;1.25;;;1.10;;
36191;SDS011;22233;42.708;23.360;2023-08-08T12:09:59;2.67;;;1.10;;
36191;SDS011;22233;42.708;23.360;2023-08-08T12:12:25;1.45;;;1.35;;
36191;SDS011;22233;42.708;23.360;2023-08-08T12:14:53;1.05;;;0.90;;
36191;SDS011;22233;42.708;23.360;2023-08-08T12:17:20;1.20;;;1.10;;
36191;SDS011;22233;42.708;23.360;2023-08-08T12:19:47;2.38;;;1.15;;
36191;SDS011;22233;42.708;23.360;2023-08-08T12:22:12;1.25;;;0.90;;
36191;SDS011;22233;42.708;23.360;2023-08-08T12:24:38;1.98;;;1.00;;
36191;SDS011;22233;42.708;23.360;2023-08-08T12:27:04;2.83;;;0.90;;
36191;SDS011;22233;42.708;23.360;2023-08-08T12:29:29;1.23;;;1.00;;
36191;SDS011;22233;42.708;23.360;2023-08-08T12:31:56;1.55;;;1.20;;
36191;SDS011;22233;42.708;23.360;2023-08-08T12:34:21;1.90;;;1.05;;
36191;SDS011;22233;42.708;23.360;2023-08-08T12:36:47;3.25;;;1.35;;
36191;SDS011;22233;42.708;23.360;2023-08-08T12:39:12;3.10;;;0.98;;
36191;SDS011;22233;42.708;23.360;2023-08-08T12:41:38;3.30;;;1.40;;
36191;SDS011;22233;42.708;23.360;2023-08-08T12:44:04;3.83;;;1.10;;
36191;SDS011;22233;42.708;23.360;2023-08-08T12:46:30;0.93;;;0.80;;
36191;SDS011;22233;42.708;23.360;2023-08-08T12:48:55;2.35;;;1.10;;
36191;SDS011;22233;42.708;23.360;2023-08-08T12:51:20;4.25;;;1.70;;
36191;SDS011;22233;42.708;23.360;2023-08-08T12:53:46;4.10;;;1.50;;
36191;SDS011;22233;42.708;23.360;2023-08-08T12:56:11;1.52;;;1.00;;
36191;SDS011;22233;42.708;23.360;2023-08-08T12:58:37;1.88;;;1.05;;
36191;SDS011;22233;42.708;23.360;2023-08-08T13:01:04;1.80;;;1.08;;
36191;SDS011;22233;42.708;23.360;2023-08-08T13:03:29;5.25;;;1.67;;
36191;SDS011;22233;42.708;23.360;2023-08-08T13:05:55;1.73;;;1.23;;
36191;SDS011;22233;42.708;23.360;2023-08-08T13:08:21;1.20;;;0.95;;
36191;SDS011;22233;42.708;23.360;2023-08-08T13:10:46;1.25;;;0.98;;
36191;SDS011;22233;42.708;23.360;2023-08-08T13:13:11;1.08;;;0.95;;
36191;SDS011;22233;42.708;23.360;2023-08-08T13:15:37;2.50;;;0.90;;
36191;SDS011;22233;42.708;23.360;2023-08-08T13:18:02;3.20;;;1.40;;
36191;SDS011;22233;42.708;23.360;2023-08-08T13:20:28;1.38;;;0.95;;
36191;SDS011;22233;42.708;23.360;2023-08-08T13:22:53;1.02;;;0.85;;
36191;SDS011;22233;42.708;23.360;2023-08-08T13:25:19;0.93;;;0.82;;
36191;SDS011;22233;42.708;23.360;2023-08-08T13:27:45;0.95;;;0.95;;
36191;SDS011;22233;42.708;23.360;2023-08-08T13:30:11;2.88;;;1.00;;
36191;SDS011;22233;42.708;23.360;2023-08-08T13:32:37;1.25;;;1.15;;
36191;SDS011;22233;42.708;23.360;2023-08-08T13:35:03;1.48;;;0.90;;
36191;SDS011;22233;42.708;23.360;2023-08-08T13:37:29;1.58;;;1.13;;
36191;SDS011;22233;42.708;23.360;2023-08-08T13:39:55;1.10;;;1.00;;
36191;SDS011;22233;42.708;23.360;2023-08-08T13:42:20;1.00;;;0.90;;
36191;SDS011;22233;42.708;23.360;2023-08-08T13:44:46;2.45;;;1.10;;
36191;SDS011;22233;42.708;23.360;2023-08-08T13:47:11;1.20;;;1.10;;
36191;SDS011;22233;42.708;23.360;2023-08-08T13:49:36;2.08;;;1.10;;
36191;SDS011;22233;42.708;23.360;2023-08-08T13:52:02;3.70;;;1.00;;
36191;SDS011;22233;42.708;23.360;2023-08-08T13:54:27;1.50;;;1.00;;
36191;SDS011;22233;42.708;23.360;2023-08-08T13:56:53;3.83;;;1.10;;
36191;SDS011;22233;42.708;23.360;2023-08-08T13:59:18;1.58;;;0.90;;
36191;SDS011;22233;42.708;23.360;2023-08-08T14:01:44;1.20;;;1.10;;
36191;SDS011;22233;42.708;23.360;2023-08-08T14:04:09;0.93;;;0.90;;
36191;SDS011;22233;42.708;23.360;2023-08-08T14:06:34;3.08;;;1.00;;
36191;SDS011;22233;42.708;23.360;2023-08-08T14:09:00;1.17;;;0.93;;
36191;SDS011;22233;42.708;23.360;2023-08-08T14:11:25;4.15;;;1.08;;
36191;SDS011;22233;42.708;23.360;2023-08-08T14:13:51;1.20;;;1.10;;
36191;SDS011;22233;42.708;23.360;2023-08-08T14:16:16;0.90;;;0.85;;
36191;SDS011;22233;42.708;23.360;2023-08-08T14:18:42;1.73;;;0.77;;
36191;SDS011;22233;42.708;23.360;2023-08-08T14:21:07;2.85;;;1.00;;
36191;SDS011;22233;42.708;23.360;2023-08-08T14:23:32;1.33;;;1.00;;
36191;SDS011;22233;42.708;23.360;2023-08-08T14:25:58;2.35;;;1.10;;
36191;SDS011;22233;42.708;23.360;2023-08-08T14:28:23;1.00;;;0.80;;
36191;SDS011;22233;42.708;23.360;2023-08-08T14:30:49;2.67;;;0.90;;
36191;SDS011;22233;42.708;23.360;2023-08-08T14:33:14;1.98;;;0.93;;
36191;SDS011;22233;42.708;23.360;2023-08-08T14:35:41;4.15;;;1.05;;
36191;SDS011;22233;42.708;23.360;2023-08-08T14:38:06;1.25;;;0.80;;
36191;SDS011;22233;42.708;23.360;2023-08-08T14:40:32;2.88;;;0.75;;